createdAt,value
2022-11-26T00:00:57.029Z,65.07
2022-11-26T00:03:23.578Z,63.10
2022-11-26T00:05:50.871Z,65.27
2022-11-26T00:08:20.215Z,64.43
2022-11-26T00:10:46.684Z,64.17
2022-11-26T00:13:17.077Z,67.17
2022-11-26T00:15:43.548Z,63.50
2022-11-26T00:18:10.027Z,59.57
2022-11-26T00:20:36.466Z,63.93
2022-11-26T00:23:04.265Z,67.30
2022-11-26T00:25:41.768Z,66.17
2022-11-26T00:28:23.057Z,65.87
2022-11-26T00:30:49.504Z,67.57
2022-11-26T00:33:15.940Z,61.10
2022-11-26T00:35:42.383Z,62.67
2022-11-26T00:38:09.993Z,59.63
2022-11-26T00:40:36.453Z,57.07
2022-11-26T00:43:03.471Z,57.13
2022-11-26T00:45:30.825Z,53.90
2022-11-26T00:48:03.811Z,54.33
2022-11-26T00:50:31.966Z,53.27
2022-11-26T00:52:58.416Z,59.17
2022-11-26T00:55:37.946Z,53.90
2022-11-26T00:58:04.879Z,53.97
2022-11-26T01:00:32.150Z,54.63
2022-11-26T01:02:58.653Z,52.03
2022-11-26T01:05:25.706Z,52.60
2022-11-26T01:07:52.551Z,51.63
2022-11-26T01:10:20.449Z,52.53
2022-11-26T01:12:47.024Z,53.30
2022-11-26T01:15:13.556Z,49.90
2022-11-26T01:17:40.053Z,53.00
2022-11-26T01:20:11.103Z,52.87
2022-11-26T01:22:37.565Z,52.03
2022-11-26T01:25:04.235Z,52.60
2022-11-26T01:27:30.683Z,51.23
2022-11-26T01:29:57.347Z,49.73
2022-11-26T01:32:28.091Z,52.20
2022-11-26T01:34:56.046Z,49.70
2022-11-26T01:37:22.492Z,51.70
2022-11-26T01:39:48.919Z,54.33
2022-11-26T01:42:21.442Z,50.10
2022-11-26T01:44:47.880Z,51.07
2022-11-26T01:47:21.870Z,52.10
2022-11-26T01:50:07.173Z,48.87
2022-11-26T01:52:33.619Z,48.50
2022-11-26T01:55:00.045Z,49.53
2022-11-26T01:57:27.612Z,53.10
2022-11-26T01:59:55.070Z,52.13
2022-11-26T02:02:22.303Z,51.10
2022-11-26T02:05:03.507Z,49.60
2022-11-26T02:07:29.986Z,49.63
2022-11-26T02:09:56.578Z,51.33
2022-11-26T02:12:23.054Z,51.43
2022-11-26T02:14:49.659Z,48.27
2022-11-26T02:17:16.091Z,51.93
2022-11-26T02:19:56.152Z,51.40
2022-11-26T02:22:31.976Z,51.00
2022-11-26T02:25:10.656Z,51.27
2022-11-26T02:28:12.668Z,51.17
2022-11-26T02:30:39.915Z,49.23
2022-11-26T02:33:09.927Z,49.67
2022-11-26T02:35:46.395Z,51.07
2022-11-26T02:38:14.246Z,50.77
2022-11-26T02:40:40.719Z,50.70
2022-11-26T02:43:07.217Z,49.10
2022-11-26T02:45:35.256Z,50.37
2022-11-26T02:48:02.244Z,49.13
2022-11-26T02:51:07.392Z,48.07
2022-11-26T02:53:34.082Z,48.07
2022-11-26T02:56:13.987Z,47.43
2022-11-26T02:58:40.452Z,48.17
2022-11-26T03:01:10.928Z,46.67
2022-11-26T03:03:38.427Z,48.10
2022-11-26T03:06:05.905Z,48.07
2022-11-26T03:08:32.629Z,47.97
2022-11-26T03:10:59.146Z,48.33
2022-11-26T03:13:25.741Z,48.03
2022-11-26T03:15:52.175Z,47.23
2022-11-26T03:18:18.598Z,47.80
2022-11-26T03:20:45.017Z,49.40
2022-11-26T03:23:11.460Z,49.77
2022-11-26T03:25:37.877Z,51.40
2022-11-26T03:28:05.006Z,53.13
2022-11-26T03:30:31.417Z,54.80
2022-11-26T03:32:58.081Z,55.73
2022-11-26T03:35:24.540Z,58.97
2022-11-26T03:37:50.983Z,58.20
2022-11-26T03:40:17.883Z,58.10
2022-11-26T03:42:44.621Z,54.43
2022-11-26T03:45:11.932Z,52.77
2022-11-26T03:47:38.778Z,50.87
2022-11-26T03:50:05.964Z,50.83
2022-11-26T03:52:32.416Z,55.37
2022-11-26T03:54:58.926Z,52.10
2022-11-26T03:57:25.385Z,54.37
2022-11-26T03:59:51.848Z,55.27
2022-11-26T04:02:18.295Z,50.23
2022-11-26T04:04:44.766Z,50.90
2022-11-26T04:07:11.189Z,51.23
2022-11-26T04:09:37.730Z,49.70
2022-11-26T04:12:04.247Z,49.00
2022-11-26T04:14:30.805Z,49.60
2022-11-26T04:16:57.257Z,50.23
2022-11-26T04:19:23.709Z,48.37
2022-11-26T04:21:50.208Z,53.53
2022-11-26T04:24:16.648Z,51.00
2022-11-26T04:26:43.072Z,48.67
2022-11-26T04:29:09.559Z,50.83
2022-11-26T04:31:36.070Z,52.47
2022-11-26T04:34:02.586Z,49.03
2022-11-26T04:36:29.016Z,48.13
2022-11-26T04:38:55.490Z,45.73
2022-11-26T04:41:22.015Z,48.43
2022-11-26T04:43:48.503Z,51.00
2022-11-26T04:46:15.036Z,50.80
2022-11-26T04:48:41.541Z,48.67
2022-11-26T04:51:07.998Z,48.97
2022-11-26T04:53:34.454Z,45.73
2022-11-26T04:56:00.954Z,48.57
2022-11-26T04:58:27.464Z,50.70
2022-11-26T05:00:53.900Z,51.03
2022-11-26T05:03:20.482Z,50.63
2022-11-26T05:05:47.372Z,47.13
2022-11-26T05:08:13.866Z,45.10
2022-11-26T05:10:40.316Z,45.87
2022-11-26T05:13:06.806Z,44.17
2022-11-26T05:15:33.301Z,44.00
2022-11-26T05:17:59.723Z,43.20
2022-11-26T05:20:26.390Z,42.97
2022-11-26T05:22:52.850Z,52.97
2022-11-26T05:25:19.307Z,47.60
2022-11-26T05:27:45.767Z,53.37
2022-11-26T05:30:13.651Z,49.13
2022-11-26T05:32:40.069Z,51.17
2022-11-26T05:35:06.751Z,51.67
2022-11-26T05:37:33.303Z,56.97
2022-11-26T05:39:59.776Z,57.07
2022-11-26T05:42:26.356Z,54.87
2022-11-26T05:44:52.827Z,53.27
2022-11-26T05:47:21.170Z,55.30
2022-11-26T05:49:47.584Z,55.57
2022-11-26T05:52:14.037Z,53.37
2022-11-26T05:54:40.687Z,52.17
2022-11-26T05:57:07.286Z,54.23
2022-11-26T05:59:33.744Z,52.00
2022-11-26T06:02:00.282Z,52.40
2022-11-26T06:04:26.758Z,55.10
2022-11-26T06:06:53.357Z,50.87
2022-11-26T06:09:19.887Z,52.10
2022-11-26T06:11:46.478Z,51.77
2022-11-26T06:14:12.913Z,51.03
2022-11-26T06:16:39.412Z,51.50
2022-11-26T06:19:05.900Z,50.83
2022-11-26T06:21:32.431Z,49.80
2022-11-26T06:23:59.731Z,49.20
2022-11-26T06:26:26.488Z,51.53
2022-11-26T06:28:52.894Z,53.90
2022-11-26T06:31:19.384Z,58.67
2022-11-26T06:33:45.859Z,58.30
2022-11-26T06:36:12.362Z,62.53
2022-11-26T06:38:38.914Z,62.33
2022-11-26T06:41:05.876Z,64.17
2022-11-26T06:43:32.481Z,65.10
2022-11-26T06:46:03.462Z,70.77
2022-11-26T06:48:30.165Z,69.90
2022-11-26T06:50:56.689Z,67.57
2022-11-26T06:53:23.144Z,70.77
2022-11-26T06:55:49.757Z,66.17
2022-11-26T06:58:16.224Z,67.83
2022-11-26T07:00:42.709Z,67.83
2022-11-26T07:03:09.451Z,66.73
2022-11-26T07:05:36.125Z,66.33
2022-11-26T07:08:02.764Z,65.03
2022-11-26T07:10:29.352Z,59.70
2022-11-26T07:12:55.932Z,60.77
2022-11-26T07:15:22.357Z,58.07
2022-11-26T07:17:48.873Z,54.07
2022-11-26T07:20:15.396Z,52.93
2022-11-26T07:22:42.010Z,51.77
2022-11-26T07:25:12.507Z,50.53
2022-11-26T07:27:39.472Z,51.70
2022-11-26T07:30:06.242Z,47.03
2022-11-26T07:32:32.715Z,47.83
2022-11-26T07:34:59.120Z,47.87
2022-11-26T07:37:25.587Z,48.73
2022-11-26T07:39:52.087Z,47.70
2022-11-26T07:42:18.521Z,48.40
2022-11-26T07:44:44.934Z,50.27
2022-11-26T07:47:11.411Z,48.63
2022-11-26T07:49:37.823Z,48.43
2022-11-26T07:52:04.291Z,46.43
2022-11-26T07:54:30.743Z,47.20
2022-11-26T07:56:57.215Z,47.27
2022-11-26T07:59:23.720Z,46.53
2022-11-26T08:01:50.279Z,46.07
2022-11-26T08:04:16.752Z,47.80
2022-11-26T08:06:43.263Z,48.37
2022-11-26T08:09:10.406Z,47.47
2022-11-26T08:11:36.887Z,47.73
2022-11-26T08:14:03.327Z,46.90
2022-11-26T08:16:29.909Z,49.23
2022-11-26T08:19:02.720Z,49.33
2022-11-26T08:21:29.160Z,49.23
2022-11-26T08:23:55.739Z,54.07
2022-11-26T08:26:27.404Z,56.20
2022-11-26T08:28:57.451Z,55.13
2022-11-26T08:31:24.996Z,54.93
2022-11-26T08:33:51.637Z,51.73
2022-11-26T08:36:18.087Z,52.20
2022-11-26T08:38:44.621Z,53.60
2022-11-26T08:41:11.602Z,51.37
2022-11-26T08:46:26.043Z,51.93
2022-11-26T08:48:54.730Z,52.43
2022-11-26T08:51:21.143Z,50.13
2022-11-26T08:53:47.854Z,51.47
2022-11-26T08:56:14.371Z,51.27
2022-11-26T08:58:41.705Z,51.17
2022-11-26T09:01:09.347Z,52.50
2022-11-26T09:03:36.156Z,49.93
2022-11-26T09:06:03.128Z,50.33
2022-11-26T09:08:29.681Z,47.17
2022-11-26T09:10:56.248Z,44.83
2022-11-26T09:13:22.781Z,47.30
2022-11-26T09:15:49.699Z,48.30
2022-11-26T09:18:16.587Z,46.80
2022-11-26T09:20:43.057Z,48.37
2022-11-26T09:23:09.559Z,46.00
2022-11-26T09:25:38.124Z,48.90
2022-11-26T09:28:05.041Z,48.30
2022-11-26T09:30:32.266Z,46.83
2022-11-26T09:32:58.792Z,43.67
2022-11-26T09:35:25.453Z,42.33
2022-11-26T09:37:52.043Z,40.43
2022-11-26T09:40:18.778Z,40.10
2022-11-26T09:42:51.380Z,37.87
2022-11-26T09:45:37.788Z,35.97
2022-11-26T09:48:04.419Z,34.77
2022-11-26T09:50:35.571Z,34.07
2022-11-26T09:53:01.996Z,35.93
2022-11-26T09:55:32.623Z,36.80
2022-11-26T09:58:05.947Z,34.63
2022-11-26T10:00:42.520Z,37.73
2022-11-26T10:03:13.466Z,35.93
2022-11-26T10:05:44.977Z,36.90
2022-11-26T10:08:17.987Z,35.97
2022-11-26T10:11:04.798Z,35.07
2022-11-26T10:13:34.475Z,40.00
2022-11-26T10:16:04.074Z,38.50
2022-11-26T10:18:30.563Z,40.07
2022-11-26T10:21:12.328Z,40.17
2022-11-26T10:23:39.134Z,39.57
2022-11-26T10:26:20.369Z,39.77
2022-11-26T10:28:47.827Z,36.90
2022-11-26T10:31:24.815Z,37.93
2022-11-26T10:33:54.461Z,37.50
2022-11-26T10:36:22.850Z,36.93
2022-11-26T10:38:49.409Z,37.07
2022-11-26T10:41:16.349Z,37.27
2022-11-26T10:43:42.827Z,34.63
2022-11-26T10:46:09.348Z,36.20
2022-11-26T10:48:36.409Z,34.50
2022-11-26T10:51:26.405Z,33.07
2022-11-26T10:54:03.107Z,32.37
2022-11-26T10:56:42.602Z,33.53
2022-11-26T10:59:29.189Z,33.07
2022-11-26T11:01:57.768Z,34.50
2022-11-26T11:04:24.604Z,35.40
2022-11-26T11:06:51.389Z,33.33
2022-11-26T11:09:24.752Z,34.80
2022-11-26T11:12:10.146Z,34.27
2022-11-26T11:14:42.268Z,34.23
2022-11-26T11:17:18.779Z,34.07
2022-11-26T11:19:45.213Z,34.83
2022-11-26T11:22:19.224Z,35.97
2022-11-26T11:24:45.831Z,35.37
2022-11-26T11:27:25.601Z,35.50
2022-11-26T11:29:54.394Z,34.87
2022-11-26T11:32:37.965Z,35.17
2022-11-26T11:35:33.829Z,36.27
2022-11-26T11:38:00.772Z,34.33
2022-11-26T11:40:29.275Z,34.80
2022-11-26T11:42:59.614Z,37.33
2022-11-26T11:45:26.234Z,35.77
2022-11-26T11:47:57.269Z,35.87
2022-11-26T11:50:29.350Z,36.90
2022-11-26T11:53:18.229Z,35.77
2022-11-26T11:55:48.042Z,35.00
2022-11-26T11:58:39.147Z,36.73
2022-11-26T12:01:05.556Z,35.23
2022-11-26T12:03:51.241Z,35.93
2022-11-26T12:06:20.786Z,35.63
2022-11-26T12:08:53.531Z,34.53
2022-11-26T12:11:46.373Z,34.70
2022-11-26T12:14:13.319Z,33.97
2022-11-26T12:16:40.725Z,33.23
2022-11-26T12:19:12.660Z,33.37
2022-11-26T12:21:48.075Z,32.80
2022-11-26T12:24:25.004Z,32.47
2022-11-26T12:26:58.477Z,31.83
2022-11-26T12:29:34.429Z,30.00
2022-11-26T12:32:07.248Z,31.47
2022-11-26T12:34:35.070Z,31.33
2022-11-26T12:37:06.014Z,31.87
2022-11-26T12:39:35.546Z,30.33
2022-11-26T12:42:05.030Z,28.67
2022-11-26T12:44:33.281Z,29.80
2022-11-26T12:47:04.920Z,30.53
2022-11-26T12:49:35.889Z,28.13
2022-11-26T12:52:11.265Z,28.10
2022-11-26T12:54:43.742Z,30.23
2022-11-26T12:57:12.807Z,29.63
2022-11-26T12:59:50.368Z,31.87
2022-11-26T13:02:21.230Z,29.43
2022-11-26T13:04:47.822Z,28.03
2022-11-26T13:07:18.877Z,29.10
2022-11-26T13:09:51.659Z,27.97
2022-11-26T13:12:27.393Z,28.90
2022-11-26T13:15:10.368Z,28.20
2022-11-26T13:17:43.922Z,28.30
2022-11-26T13:20:19.583Z,30.43
2022-11-26T13:22:49.100Z,28.50
2022-11-26T13:25:27.808Z,26.93
2022-11-26T13:28:12.835Z,29.43
2022-11-26T13:30:48.675Z,29.80
2022-11-26T13:33:25.293Z,29.63
2022-11-26T13:35:57.360Z,32.53
2022-11-26T13:38:36.926Z,32.73
2022-11-26T13:41:35.903Z,30.47
2022-11-26T13:44:02.407Z,32.43
2022-11-26T13:46:48.516Z,32.97
2022-11-26T13:49:22.869Z,31.80
2022-11-26T13:51:50.821Z,32.43
2022-11-26T13:54:23.568Z,33.30
2022-11-26T13:56:50.028Z,29.50
2022-11-26T13:59:25.341Z,28.13
2022-11-26T14:01:55.790Z,26.87
2022-11-26T14:04:22.344Z,26.97
2022-11-26T14:07:04.097Z,28.93
2022-11-26T14:09:42.857Z,28.30
2022-11-26T14:12:09.787Z,26.63
2022-11-26T14:14:37.500Z,24.87
2022-11-26T14:17:04.415Z,24.70
2022-11-26T14:19:40.145Z,24.60
2022-11-26T14:22:25.958Z,23.57
2022-11-26T14:24:56.644Z,20.80
2022-11-26T14:27:43.401Z,22.03
2022-11-26T14:30:15.537Z,21.80
2022-11-26T14:32:42.069Z,20.47
2022-11-26T14:35:35.041Z,22.27
2022-11-26T14:38:02.072Z,22.30
2022-11-26T14:40:29.468Z,22.03
2022-11-26T14:43:14.638Z,24.67
2022-11-26T14:45:41.225Z,25.07
2022-11-26T14:48:09.110Z,24.23
2022-11-26T14:50:37.934Z,25.67
2022-11-26T14:53:04.989Z,24.97
2022-11-26T14:55:31.575Z,26.40
2022-11-26T14:58:08.655Z,27.33
2022-11-26T15:00:36.057Z,27.27
2022-11-26T15:03:05.682Z,26.33
2022-11-26T15:05:32.842Z,26.70
2022-11-26T15:08:03.198Z,26.77
2022-11-26T15:10:33.494Z,26.13
2022-11-26T15:13:02.111Z,25.70
2022-11-26T15:15:28.614Z,26.07
2022-11-26T15:17:58.823Z,25.13
2022-11-26T15:20:25.304Z,26.43
2022-11-26T15:22:52.343Z,25.70
2022-11-26T15:25:22.514Z,29.27
2022-11-26T15:27:51.975Z,28.90
2022-11-26T15:30:21.188Z,28.23
2022-11-26T15:32:47.710Z,27.87
2022-11-26T15:35:14.815Z,26.37
2022-11-26T15:37:41.363Z,28.30
2022-11-26T15:40:30.176Z,25.13
2022-11-26T15:42:57.837Z,26.43
2022-11-26T15:45:25.640Z,26.10
2022-11-26T15:47:52.467Z,27.43
2022-11-26T15:50:22.179Z,26.07
2022-11-26T15:52:48.643Z,26.43
2022-11-26T15:55:19.615Z,26.53
2022-11-26T15:57:48.268Z,26.83
2022-11-26T16:00:28.158Z,26.57
2022-11-26T16:02:54.716Z,26.07
2022-11-26T16:05:38.574Z,18.83
2022-11-26T16:08:25.380Z,20.10
2022-11-26T16:11:04.151Z,21.27
2022-11-26T16:13:34.781Z,21.93
2022-11-26T16:16:04.248Z,20.90
2022-11-26T16:18:40.758Z,19.97
2022-11-26T16:21:28.427Z,22.20
2022-11-26T16:23:59.445Z,20.83
2022-11-26T16:26:25.937Z,21.57
2022-11-26T16:28:52.398Z,20.53
2022-11-26T16:31:18.906Z,19.50
2022-11-26T16:33:45.531Z,20.27
2022-11-26T16:36:16.733Z,19.67
2022-11-26T16:38:43.196Z,16.40
2022-11-26T16:41:11.377Z,15.33
2022-11-26T16:43:37.832Z,14.80
2022-11-26T16:46:06.205Z,16.20
2022-11-26T16:48:32.756Z,16.17
2022-11-26T16:50:59.277Z,16.93
2022-11-26T16:53:25.810Z,17.90
2022-11-26T16:55:52.367Z,18.63
2022-11-26T16:58:28.987Z,16.73
2022-11-26T17:00:55.710Z,16.73
2022-11-26T17:03:25.328Z,15.93
2022-11-26T17:05:52.612Z,16.70
2022-11-26T17:08:19.101Z,17.10
2022-11-26T17:10:47.728Z,16.23
2022-11-26T17:13:17.300Z,17.77
2022-11-26T17:15:43.752Z,17.60
2022-11-26T17:18:20.299Z,16.47
2022-11-26T17:20:46.811Z,15.73
2022-11-26T17:23:13.319Z,16.43
2022-11-26T17:25:39.833Z,16.30
2022-11-26T17:28:10.493Z,19.93
2022-11-26T17:30:37.082Z,20.10
2022-11-26T17:33:03.573Z,19.23
2022-11-26T17:35:30.008Z,19.43
2022-11-26T17:37:56.492Z,19.63
2022-11-26T17:40:23.581Z,21.60
2022-11-26T17:42:50.196Z,22.80
2022-11-26T17:45:17.076Z,27.17
2022-11-26T17:47:43.857Z,31.43
2022-11-26T17:50:28.711Z,37.77
2022-11-26T17:52:56.401Z,36.67
2022-11-26T17:55:23.481Z,35.30
2022-11-26T17:57:49.999Z,32.07
2022-11-26T18:00:20.767Z,33.13
2022-11-26T18:02:47.230Z,29.13
2022-11-26T18:05:13.720Z,27.87
2022-11-26T18:07:40.829Z,28.27
2022-11-26T18:10:08.134Z,28.50
2022-11-26T18:12:34.601Z,27.93
2022-11-26T18:15:02.121Z,29.50
2022-11-26T18:17:28.593Z,30.50
2022-11-26T18:19:55.151Z,30.90
2022-11-26T18:22:22.152Z,34.73
2022-11-26T18:24:56.420Z,33.73
2022-11-26T18:27:24.698Z,32.57
2022-11-26T18:29:51.127Z,31.03
2022-11-26T18:32:17.607Z,33.03
2022-11-26T18:34:44.056Z,29.77
2022-11-26T18:37:11.483Z,30.40
2022-11-26T18:39:38.149Z,30.43
2022-11-26T18:42:35.319Z,34.23
2022-11-26T18:44:51.249Z,34.27
2022-11-26T18:47:17.697Z,35.90
2022-11-26T18:49:47.466Z,39.93
2022-11-26T18:52:14.284Z,39.37
2022-11-26T18:54:40.772Z,37.37
2022-11-26T18:57:07.256Z,37.30
2022-11-26T18:59:33.731Z,37.17
2022-11-26T19:02:00.525Z,36.03
2022-11-26T19:04:27.063Z,39.17
2022-11-26T19:06:53.731Z,39.30
2022-11-26T19:09:20.573Z,37.37
2022-11-26T19:11:47.551Z,35.87
2022-11-26T19:14:14.579Z,32.50
2022-11-26T19:16:41.411Z,33.63
2022-11-26T19:19:08.019Z,33.57
2022-11-26T19:21:34.654Z,34.53
2022-11-26T19:24:02.092Z,34.47
2022-11-26T19:26:28.692Z,35.10
2022-11-26T19:28:55.388Z,33.97
2022-11-26T19:31:22.727Z,31.63
2022-11-26T19:33:53.022Z,32.13
2022-11-26T19:36:19.828Z,33.50
2022-11-26T19:38:46.613Z,33.87
2022-11-26T19:41:13.570Z,32.10
2022-11-26T19:43:40.633Z,33.27
2022-11-26T19:46:08.440Z,35.07
2022-11-26T19:48:36.183Z,33.27
2022-11-26T19:51:03.028Z,34.50
2022-11-26T19:53:30.156Z,35.27
2022-11-26T19:56:16.088Z,35.47
2022-11-26T19:58:43.430Z,38.97
2022-11-26T20:01:10.677Z,36.80
2022-11-26T20:03:37.768Z,38.40
2022-11-26T20:06:05.190Z,35.83
2022-11-26T20:08:32.352Z,36.80
2022-11-26T20:11:03.780Z,36.00
2022-11-26T20:13:30.258Z,35.10
2022-11-26T20:15:56.905Z,37.27
2022-11-26T20:18:23.585Z,36.77
2022-11-26T20:20:57.025Z,52.97
2022-11-26T20:23:23.575Z,64.67
2022-11-26T20:25:50.228Z,61.17
2022-11-26T20:28:16.814Z,48.80
2022-11-26T20:30:43.456Z,44.93
2022-11-26T20:33:10.018Z,38.43
2022-11-26T20:35:39.613Z,36.50
2022-11-26T20:38:06.094Z,35.27
2022-11-26T20:40:32.536Z,37.47
2022-11-26T20:42:59.069Z,37.90
2022-11-26T20:45:25.606Z,37.40
2022-11-26T20:47:52.129Z,39.93
2022-11-26T20:50:18.625Z,38.57
2022-11-26T20:52:45.174Z,38.83
2022-11-26T20:55:11.697Z,39.27
2022-11-26T20:57:38.281Z,35.97
2022-11-26T21:00:05.258Z,36.37
2022-11-26T21:02:31.882Z,32.93
2022-11-26T21:05:00.604Z,32.13
2022-11-26T21:07:28.447Z,32.30
2022-11-26T21:09:55.123Z,28.70
2022-11-26T21:12:21.583Z,30.93
2022-11-26T21:14:48.188Z,29.43
2022-11-26T21:17:14.738Z,28.27
2022-11-26T21:19:41.566Z,26.77
2022-11-26T21:22:08.367Z,25.87
2022-11-26T21:24:37.149Z,26.30
2022-11-26T21:27:03.698Z,25.77
2022-11-26T21:29:30.592Z,23.80
2022-11-26T21:31:57.095Z,22.57
2022-11-26T21:34:23.655Z,23.53
2022-11-26T21:36:50.160Z,22.50
2022-11-26T21:39:16.731Z,21.43
2022-11-26T21:41:43.240Z,22.53
2022-11-26T21:44:09.768Z,22.03
2022-11-26T21:46:38.583Z,24.47
2022-11-26T21:49:05.403Z,23.20
2022-11-26T21:51:31.904Z,24.57
2022-11-26T21:53:58.468Z,24.27
2022-11-26T21:56:28.754Z,25.20
2022-11-26T21:58:57.001Z,23.93
2022-11-26T22:01:26.866Z,24.93
2022-11-26T22:03:53.775Z,23.60
2022-11-26T22:06:20.565Z,23.60
2022-11-26T22:08:50.284Z,23.80
2022-11-26T22:11:21.844Z,22.20
2022-11-26T22:13:48.374Z,23.20
2022-11-26T22:16:15.312Z,24.17
2022-11-26T22:18:42.112Z,23.47
2022-11-26T22:21:18.622Z,23.23
2022-11-26T22:23:45.412Z,21.53
2022-11-26T22:26:12.111Z,20.73
2022-11-26T22:28:41.650Z,21.97
2022-11-26T22:31:15.141Z,21.83
2022-11-26T22:33:41.685Z,21.30
2022-11-26T22:36:08.447Z,18.37
2022-11-26T22:38:35.703Z,17.27
2022-11-26T22:41:03.238Z,16.90
2022-11-26T22:43:30.077Z,16.43
2022-11-26T22:45:58.713Z,15.93
2022-11-26T22:48:25.261Z,16.47
2022-11-26T22:50:54.961Z,16.50
2022-11-26T22:53:21.751Z,15.57
2022-11-26T22:55:58.487Z,17.00
2022-11-26T22:58:25.605Z,17.47
2022-11-26T23:00:53.224Z,19.13
2022-11-26T23:03:20.094Z,18.87
2022-11-26T23:05:46.927Z,19.87
2022-11-26T23:08:14.075Z,19.23
2022-11-26T23:10:40.619Z,18.20
2022-11-26T23:13:10.649Z,17.93
2022-11-26T23:15:44.836Z,20.43
2022-11-26T23:18:11.974Z,21.63
2022-11-26T23:20:38.431Z,18.93
2022-11-26T23:23:05.023Z,20.97
2022-11-26T23:25:31.465Z,19.43
2022-11-26T23:27:58.007Z,19.80
2022-11-26T23:30:24.492Z,19.27
2022-11-26T23:32:51.028Z,19.97
2022-11-26T23:35:17.517Z,20.00
2022-11-26T23:37:43.994Z,21.80
2022-11-26T23:40:10.723Z,21.87
2022-11-26T23:42:37.201Z,25.27
2022-11-26T23:45:03.852Z,30.10
2022-11-26T23:47:30.442Z,25.67
2022-11-26T23:50:00.733Z,22.47
2022-11-26T23:52:27.588Z,21.77
2022-11-26T23:54:54.087Z,18.77
2022-11-26T23:57:20.699Z,21.03
2022-11-26T23:59:47.175Z,20.30
